Inukjuak Airport
CYPH : now visible

Airfield :











YOU CAN JOIN US ON...

 
LOGIN :

Register | Disclaimer

   EN    FR    IT 

 









Legend :    VFR   Marginal VFR   IFR   Intensive IFR   Very Intensive IFR
Visi :
Ceiling :
>= 8 km
>= 3000ft
5 to 8 km
1000 to 3000 ft
1500m to 5 km
500 to 1000 ft
800 to 1500m
200 to 500 ft
< 800m
< 200 ft
Symbols :   Thunderstorms  Fog  Heavy snow  Heavy precipitations  Wind > 20 kt






- Airport Elevation : 83 ft
- IATA code : YPH


CYPH - Inukjuak

CURRENT METAR :
  • 110615Z AUTO VRB02KT 9SM BKN008 BKN019 BKN027 OVC065 15/14 A2924 RMK SLP905 DENSITY ALT 800FT

EXPIRED METARs :
  • 110556Z AUTO VRB02KT 9SM -RA BKN008 BKN021 BKN025 OVC045 14/14 A2925 RMK SLP907 DENSITY ALT 700FT
  • 110522Z AUTO 08005KT 6SM -RA BR FEW028 BKN042 BKN060 OVC077 14/14 A2926 RMK SLP911 DENSITY ALT 700FT
  • 110517Z AUTO 07004KT 5SM -RA BR FEW012 SCT027 BKN042 OVC055 14/14 A2926 RMK SLP911 DENSITY ALT 700FT
  • 110500Z AUTO 06004KT 330V060 6SM -RA BR SCT016 BKN027 BKN042 OVC055 14/14 A2927 RMK SLP914 DENSITY ALT 700FT
  • 110456Z AUTO 05003KT 320V060 8SM -RA SCT014 BKN027 BKN040 OVC047 14/14 A2927 RMK SLP914 DENSITY ALT 700FT
  • 110442Z AUTO 00000KT 6SM -RA BR FEW009 BKN018 BKN029 OVC055 14/14 A2928 RMK SLP917 DENSITY ALT 700FT
  • 110430Z AUTO 00000KT 5SM -RA BR SCT009 BKN018 OVC029 14/14 A2928 RMK SLP919 DENSITY ALT 700FT
  • 110414Z AUTO VRB02KT 6SM -RA BR OVC018 14/14 A2929 RMK SLP921 DENSITY ALT 700FT
  • 110400Z AUTO 27005KT 4SM -RA BR BKN018 OVC030 15/14 A2929 RMK SLP922 DENSITY ALT 700FT
  • 110359Z AUTO 27006KT 4SM -RA BR BKN020 OVC030 15/14 A2929 RMK SLP922 DENSITY ALT 700FT
  • 110337Z AUTO 26008G16KT 5SM -RA BR BKN032 OVC070 15/14 A2930 RMK SLP924 DENSITY ALT 700FT
  • 110324Z AUTO 25006KT 120V250 8SM -RA BKN032 OVC070 16/15 A2930 RMK SLP923 DENSITY ALT 800FT

TAF TAF CYPH
Valid from the 11 at 06:00 until the 11 at 18:00 UTC


110544Z 1106/1118 08005KT 6SM -RA BR BKN030 OVC070
TEMPO 1106/1115 2SM -RA BR OVC004
PROB30 1106/1115 1/2SM FG VV002
FM111500 21012KT 6SM -RA BR BKN030 OVC070
TEMPO 1115/1118 2SM -RA BR OVC004
PROB30 1115/1118 1/2SM FG VV002 RMK FCST BASED ON AUTO OBS. NXT FCST BY 111200Z
CZUL FIR / North America



MET'MAP, your aeronautical weather chart ! - Copyright ORBIFLY December 2007 - Disclaimer

ORBIFLY MET'MAP TEAM :

Programming & Development : Alexandra Zaïnal
Concept & original design : Baudouin d'Aumeries
Assistance for programming : Marc-Olivier Méhu
Technical & hardware support : Manuel Goepfert

Contact : metmap@orbifly.com




SOURCES & CREDITS :

   NOAA       Earth
Advisory